Time;durP1;ratioP1;P1;durP2;ratioP2;P2;SDS_P1;SDS_P2;PMS_P1;PMS_P2;Temp;Humidity;BMP_temperature;BMP_pressure;BME280_temperature;BME280_humidity;BME280_pressure;Samples;Min_cycle;Max_cycle;Signal;HPM_P1;HPM_P2
2023/03/14 00:02:23;;;;;;;1.65;1.08;;;;;;;11.11;89.88;98761.72;7394485;19;20075;-70
2023/03/14 00:04:51;;;;;;;3.50;0.95;;;;;;;11.10;89.72;98767.06;7393612;19;20094;-71
2023/03/14 00:07:20;;;;;;;1.75;0.80;;;;;;;11.06;89.91;98748.03;7393263;19;20074;-72
2023/03/14 00:09:48;;;;;;;1.40;0.93;;;;;;;10.96;89.98;98726.69;7393818;19;20028;-72
2023/03/14 00:12:17;;;;;;;2.05;1.00;;;;;;;11.02;89.62;98743.84;7395480;19;20079;-71
2023/03/14 00:14:45;;;;;;;1.30;0.90;;;;;;;11.00;89.96;98750.97;7397155;19;20094;-71
2023/03/14 00:17:16;;;;;;;1.88;0.80;;;;;;;10.96;89.96;98736.34;7401242;19;20101;-71
2023/03/14 00:19:45;;;;;;;0.77;0.73;;;;;;;10.96;91.13;98708.31;7399947;19;20078;-71
2023/03/14 00:22:13;;;;;;;2.47;1.08;;;;;;;10.94;91.01;98715.41;7400214;19;20022;-73
2023/03/14 00:24:42;;;;;;;2.60;1.25;;;;;;;10.89;90.21;98710.44;7399451;19;20529;-71
2023/03/14 00:27:10;;;;;;;1.70;0.82;;;;;;;10.88;90.87;98727.13;7400469;19;20090;-71
2023/03/14 00:29:38;;;;;;;1.77;1.02;;;;;;;10.86;90.76;98717.63;7399690;19;20423;-71
2023/03/14 00:32:07;;;;;;;1.05;0.73;;;;;;;10.82;91.07;98714.34;7402382;19;20389;-70
2023/03/14 00:34:38;;;;;;;2.08;1.13;;;;;;;10.80;90.96;98710.94;7399977;19;20089;-71
2023/03/14 00:37:07;;;;;;;1.42;1.00;;;;;;;10.76;91.16;98706.81;7399169;19;20437;-71
2023/03/14 00:39:35;;;;;;;1.88;1.20;;;;;;;10.76;91.72;98707.63;7399375;19;20074;-71
2023/03/14 00:42:04;;;;;;;1.48;1.08;;;;;;;10.74;91.63;98711.28;7401898;19;20486;-72
2023/03/14 00:44:32;;;;;;;2.00;1.13;;;;;;;10.71;91.90;98706.22;7399479;19;20085;-71
2023/03/14 00:47:01;;;;;;;1.00;0.82;;;;;;;10.50;91.89;98679.38;7399695;19;20042;-72
2023/03/14 00:49:30;;;;;;;1.67;0.90;;;;;;;10.64;91.87;98697.84;7400110;19;20074;-71
2023/03/14 00:52:01;;;;;;;3.30;0.95;;;;;;;10.62;92.16;98691.81;7401484;19;20506;-68
2023/03/14 00:54:29;;;;;;;1.58;1.00;;;;;;;10.58;91.96;98688.53;7399210;19;20348;-68
2023/03/14 00:56:58;;;;;;;2.20;0.90;;;;;;;10.50;91.81;98680.25;7402574;19;20093;-68
2023/03/14 00:59:26;;;;;;;2.35;1.00;;;;;;;10.53;91.83;98672.19;7402051;19;20159;-68
2023/03/14 01:01:55;;;;;;;1.70;0.90;;;;;;;10.49;92.76;98670.69;7399827;19;20078;-69
2023/03/14 01:04:23;;;;;;;3.35;1.20;;;;;;;10.48;91.85;98692.56;7400368;19;20557;-68
2023/03/14 01:06:51;;;;;;;2.65;1.00;;;;;;;10.46;92.04;98683.09;7402581;19;20035;-67
2023/03/14 01:09:22;;;;;;;1.23;0.80;;;;;;;10.44;92.23;98691.06;7399508;19;20035;-67
2023/03/14 01:11:51;;;;;;;1.13;0.90;;;;;;;10.44;92.54;98722.53;7402524;19;20106;-67
2023/03/14 01:14:19;;;;;;;0.80;0.68;;;;;;;10.42;92.76;98729.59;7400062;19;20036;-68
2023/03/14 01:16:48;;;;;;;1.23;0.80;;;;;;;10.40;92.35;98737.56;7399401;19;20453;-69
2023/03/14 01:19:16;;;;;;;1.75;0.80;;;;;;;10.36;92.04;98741.28;7399443;19;20082;-69
2023/03/14 01:21:45;;;;;;;1.40;1.00;;;;;;;10.35;92.47;98736.94;7402064;19;20078;-68
2023/03/14 01:24:14;;;;;;;1.58;0.80;;;;;;;10.33;92.49;98738.78;7398539;19;20069;-67
2023/03/14 01:26:45;;;;;;;1.27;0.77;;;;;;;10.28;92.10;98746.03;7399822;19;20081;-67
2023/03/14 01:29:13;;;;;;;2.13;0.75;;;;;;;10.27;92.11;98739.97;7397476;19;20552;-69
2023/03/14 01:31:42;;;;;;;2.17;0.90;;;;;;;10.26;93.07;98745.25;7402258;19;20019;-68
2023/03/14 01:34:10;;;;;;;1.55;0.75;;;;;;;10.24;92.50;98736.66;7400904;19;20480;-69
2023/03/14 01:36:39;;;;;;;1.85;0.80;;;;;;;10.21;92.75;98742.91;7401012;19;20074;-69
2023/03/14 01:39:13;;;;;;;1.58;0.90;;;;;;;10.17;93.01;98751.81;7401039;19;20050;-68
2023/03/14 01:41:44;;;;;;;1.17;0.75;;;;;;;10.17;93.32;98757.06;7400515;19;20157;-68
2023/03/14 01:44:13;;;;;;;2.10;0.90;;;;;;;10.14;93.54;98746.75;7400019;19;20035;-68
2023/03/14 01:46:43;;;;;;;1.92;0.90;;;;;;;10.14;93.79;98746.75;7420922;19;20033;-68
2023/03/14 01:49:19;;;;;;;2.40;0.80;;;;;;;10.12;93.44;98759.06;7419313;19;20007;-69
2023/03/14 01:51:53;;;;;;;4.30;0.98;;;;;;;10.11;93.84;98746.94;7421911;19;20035;-69
2023/03/14 01:54:27;;;;;;;1.48;0.90;;;;;;;10.09;94.11;98757.47;7419395;19;20018;-69
2023/03/14 01:57:04;;;;;;;2.80;1.05;;;;;;;10.04;94.57;98732.44;7421458;19;20023;-69
2023/03/14 01:59:34;;;;;;;1.85;0.95;;;;;;;10.07;94.70;98729.66;7419440;19;20018;-69
2023/03/14 02:02:05;;;;;;;1.42;1.00;;;;;;;10.05;94.65;98721.88;7420116;19;20007;-69
2023/03/14 02:04:37;;;;;;;1.75;0.75;;;;;;;10.03;94.67;98721.09;7418499;19;20039;-68
2023/03/14 02:07:19;;;;;;;2.20;1.00;;;;;;;10.02;94.67;98716.81;7416860;19;20412;-69
2023/03/14 02:09:47;;;;;;;1.80;1.00;;;;;;;9.99;94.67;98713.50;7418232;19;20028;-68
2023/03/14 02:12:21;;;;;;;2.60;0.90;;;;;;;9.98;94.62;98720.50;7416829;19;20010;-69
2023/03/14 02:14:50;;;;;;;1.17;0.82;;;;;;;9.97;94.85;98713.59;7418610;19;20024;-68
2023/03/14 02:17:21;;;;;;;1.15;0.80;;;;;;;9.89;94.17;98710.50;7417996;19;20014;-68
2023/03/14 02:20:00;;;;;;;1.52;0.80;;;;;;;9.90;94.72;98715.66;7420563;19;20027;-69
2023/03/14 02:22:29;;;;;;;0.93;0.82;;;;;;;9.94;94.91;98709.34;7417818;19;20021;-69
2023/03/14 02:25:05;;;;;;;2.60;0.88;;;;;;;9.94;94.73;98713.72;7398181;19;20477;-68
2023/03/14 02:27:37;;;;;;;1.15;0.80;;;;;;;9.93;94.29;98710.28;7396271;19;20045;-69
2023/03/14 02:30:09;;;;;;;1.30;0.85;;;;;;;9.93;94.66;98707.66;7396410;19;20011;-69
2023/03/14 02:32:41;;;;;;;1.40;1.00;;;;;;;9.94;94.74;98698.00;7395412;19;20502;-69
2023/03/14 02:35:14;;;;;;;1.10;0.65;;;;;;;9.93;95.08;98701.53;7395426;19;20514;-69
2023/03/14 02:37:48;;;;;;;1.45;1.10;;;;;;;9.90;94.96;98693.88;7397851;19;20086;-68
2023/03/14 02:40:16;;;;;;;;;;;;;;;9.90;92.28;98689.47;7395141;19;20443;-69
2023/03/14 02:42:47;;;;;;;1.63;0.70;;;;;;;9.88;93.91;98686.09;7395418;19;19931;-68
2023/03/14 02:45:37;;;;;;;0.90;0.70;;;;;;;9.89;93.82;98687.75;7394970;19;20078;-69
2023/03/14 02:48:08;;;;;;;0.70;0.57;;;;;;;9.89;94.56;98677.28;7395718;19;20077;-69
2023/03/14 02:50:37;;;;;;;1.48;0.80;;;;;;;9.91;94.41;98685.09;7395165;19;20397;-69
2023/03/14 02:53:05;;;;;;;1.60;0.60;;;;;;;9.89;94.65;98673.81;7395017;19;20078;-68
2023/03/14 02:55:34;;;;;;;1.17;0.80;;;;;;;9.91;94.37;98653.66;7395326;19;20081;-68
2023/03/14 02:58:05;;;;;;;1.75;0.80;;;;;;;9.92;94.60;98652.69;7395518;19;20433;-69
2023/03/14 03:00:33;;;;;;;1.65;0.80;;;;;;;9.93;94.35;98639.53;7399468;19;20557;-68
2023/03/14 03:03:02;;;;;;;1.48;0.80;;;;;;;9.93;93.56;98638.69;7401974;19;20018;-68
2023/03/14 03:05:30;;;;;;;1.40;0.70;;;;;;;9.95;94.18;98632.44;7395161;19;20020;-68
2023/03/14 03:07:59;;;;;;;2.13;0.75;;;;;;;9.97;93.75;98631.50;7394832;19;20078;-69
2023/03/14 03:10:28;;;;;;;1.35;0.50;;;;;;;9.97;94.23;98626.28;7394079;19;20442;-68
2023/03/14 03:12:56;;;;;;;2.45;0.75;;;;;;;9.94;93.59;98620.28;7394378;19;20428;-69
2023/03/14 03:15:28;;;;;;;1.20;0.88;;;;;;;9.95;91.69;98621.94;7394803;19;20078;-72
2023/03/14 03:17:56;;;;;;;1.02;0.80;;;;;;;9.95;91.91;98627.19;7395219;19;20070;-71
2023/03/14 03:20:24;;;;;;;1.30;0.77;;;;;;;9.85;92.25;98618.13;7394911;19;20078;-73
2023/03/14 03:22:53;;;;;;;1.33;0.70;;;;;;;9.98;91.50;98630.59;7395543;19;20400;-73
2023/03/14 03:25:21;;;;;;;2.13;0.95;;;;;;;9.99;91.31;98630.50;7394985;19;20078;-72
2023/03/14 03:27:50;;;;;;;2.15;0.60;;;;;;;10.01;90.75;98638.28;7394815;19;20021;-71
2023/03/14 03:30:19;;;;;;;1.40;0.77;;;;;;;10.03;91.53;98633.81;7394549;19;20098;-72
2023/03/14 03:32:50;;;;;;;1.58;0.65;;;;;;;10.04;90.80;98643.38;7393949;19;20442;-71
2023/03/14 03:35:19;;;;;;;0.63;0.60;;;;;;;10.06;90.68;98649.34;7395502;19;20010;-72
2023/03/14 03:37:47;;;;;;;0.82;0.70;;;;;;;10.06;90.46;98644.09;7396193;19;20440;-73
2023/03/14 03:40:16;;;;;;;0.70;0.57;;;;;;;10.08;91.02;98642.25;7394660;19;20103;-73
2023/03/14 03:42:44;;;;;;;0.70;0.60;;;;;;;10.07;90.75;98637.94;7396806;19;20015;-72
2023/03/14 03:45:13;;;;;;;1.80;0.60;;;;;;;10.09;91.11;98639.56;7394132;19;20022;-72
2023/03/14 03:47:42;;;;;;;2.13;0.55;;;;;;;10.07;90.66;98636.19;7395671;19;20039;-73
2023/03/14 03:50:13;;;;;;;1.20;0.80;;;;;;;10.08;90.71;98648.38;7393221;19;20115;-71
2023/03/14 03:52:41;;;;;;;0.80;0.60;;;;;;;10.08;90.87;98647.50;7395160;19;20250;-70
2023/03/14 03:55:11;;;;;;;1.00;0.70;;;;;;;10.08;90.41;98663.22;7393384;19;20074;-71
2023/03/14 03:57:39;;;;;;;0.68;0.60;;;;;;;10.08;89.69;98642.25;7392944;19;20481;-72
2023/03/14 04:00:11;;;;;;;0.90;0.70;;;;;;;10.06;89.50;98628.38;7392981;19;20078;-71
2023/03/14 04:02:40;;;;;;;1.58;0.50;;;;;;;9.98;90.18;98614.88;7395117;19;20035;-72
2023/03/14 04:05:09;;;;;;;1.40;0.70;;;;;;;10.03;88.75;98626.78;7393150;19;20018;-70
2023/03/14 04:07:40;;;;;;;0.70;0.55;;;;;;;10.02;89.52;98642.59;7393512;19;20015;-72
2023/03/14 04:10:09;;;;;;;2.17;0.80;;;;;;;10.02;88.35;98627.72;7394728;19;20022;-72
2023/03/14 04:12:38;;;;;;;0.60;0.52;;;;;;;10.03;88.99;98618.91;7392988;19;20086;-72
2023/03/14 04:15:07;;;;;;;2.78;0.63;;;;;;;10.03;88.80;98616.31;7392602;19;20537;-72
2023/03/14 04:17:36;;;;;;;1.30;0.50;;;;;;;10.00;89.13;98598.16;7393478;19;20018;-72
2023/03/14 04:20:08;;;;;;;1.05;0.50;;;;;;;10.05;88.52;98611.00;7393152;19;20014;-72
2023/03/14 04:22:36;;;;;;;1.33;0.68;;;;;;;10.03;87.72;98607.59;7392709;19;20017;-72
2023/03/14 04:25:09;;;;;;;0.60;0.45;;;;;;;10.00;87.69;98599.94;7391927;19;20019;-71
2023/03/14 04:27:37;;;;;;;1.13;0.60;;;;;;;10.05;87.42;98605.75;7392549;19;20010;-76
2023/03/14 04:30:06;;;;;;;1.27;0.80;;;;;;;10.03;87.62;98597.13;7393870;19;20015;-72
2023/03/14 04:32:35;;;;;;;0.82;0.50;;;;;;;10.05;87.23;98590.03;7393249;19;20019;-72
2023/03/14 04:35:03;;;;;;;1.52;0.70;;;;;;;10.03;85.51;98581.41;7393188;19;20370;-73
2023/03/14 04:37:32;;;;;;;1.48;0.50;;;;;;;10.08;87.33;98588.09;7394276;19;20454;-73
2023/03/14 04:40:00;;;;;;;0.82;0.60;;;;;;;10.08;86.94;98574.16;7394820;19;20074;-71
2023/03/14 04:42:31;;;;;;;1.45;0.70;;;;;;;10.08;85.00;98582.00;7395221;19;20073;-70
2023/03/14 04:45:00;;;;;;;1.55;0.40;;;;;;;10.08;85.76;98574.16;7392810;19;20482;-70
2023/03/14 04:47:29;;;;;;;3.17;0.55;;;;;;;10.12;85.64;98567.81;7393833;19;20010;-71
2023/03/14 04:49:57;;;;;;;2.42;0.80;;;;;;;10.13;85.84;98577.34;7393149;19;20082;-70
2023/03/14 04:52:26;;;;;;;1.10;0.52;;;;;;;10.14;85.60;98589.53;7392765;19;20014;-69
2023/03/14 04:54:54;;;;;;;1.83;0.70;;;;;;;10.15;84.93;98588.63;7394600;19;20086;-70
2023/03/14 04:57:22;;;;;;;2.08;0.60;;;;;;;10.14;85.36;98583.47;7392322;19;20082;-70
2023/03/14 04:59:53;;;;;;;1.05;0.47;;;;;;;10.13;83.11;98590.47;7392347;19;20018;-71
2023/03/14 05:02:22;;;;;;;1.25;0.50;;;;;;;10.14;82.95;98594.78;7394919;19;20504;-69
2023/03/14 05:04:50;;;;;;;2.33;0.43;;;;;;;10.15;84.22;98578.13;7399977;19;20014;-71
2023/03/14 05:07:19;;;;;;;1.33;0.50;;;;;;;10.14;84.13;98576.44;7400526;19;20021;-69
2023/03/14 05:09:47;;;;;;;1.17;0.55;;;;;;;10.15;84.41;98585.13;7400182;19;20085;-70
2023/03/14 05:12:16;;;;;;;1.67;0.60;;;;;;;10.14;83.23;98580.84;7403279;19;20098;-69
2023/03/14 05:14:44;;;;;;;1.58;0.68;;;;;;;10.14;83.53;98584.28;7401387;19;20015;-68
2023/03/14 05:17:16;;;;;;;0.90;0.55;;;;;;;10.14;82.90;98576.44;7401774;19;20018;-69
2023/03/14 05:19:45;;;;;;;1.63;0.80;;;;;;;10.15;82.12;98577.28;7402116;19;20011;-70
2023/03/14 05:22:14;;;;;;;1.27;0.75;;;;;;;10.15;82.37;98565.03;7404593;19;20067;-68
2023/03/14 05:24:42;;;;;;;0.88;0.63;;;;;;;10.17;83.52;98567.56;7401451;19;20175;-69
2023/03/14 05:27:11;;;;;;;1.42;0.75;;;;;;;10.14;81.91;98552.84;7403423;19;20022;-69
2023/03/14 05:29:39;;;;;;;1.38;0.60;;;;;;;10.16;82.25;98547.53;7400601;19;20481;-69
2023/03/14 05:32:08;;;;;;;2.00;0.65;;;;;;;10.17;82.80;98557.91;7402746;19;20074;-69
2023/03/14 05:34:40;;;;;;;2.88;0.70;;;;;;;10.13;80.09;98552.94;7403716;19;20014;-69
2023/03/14 05:37:08;;;;;;;1.38;0.63;;;;;;;10.13;81.65;98545.91;7402470;19;20102;-69
2023/03/14 05:39:37;;;;;;;1.73;0.57;;;;;;;10.15;81.47;98574.66;7397816;19;20020;-70
2023/03/14 05:42:05;;;;;;;1.48;0.65;;;;;;;10.14;82.24;98575.59;7400617;19;20014;-69
2023/03/14 05:44:33;;;;;;;0.93;0.60;;;;;;;10.15;81.55;98565.03;7398950;19;20105;-69
2023/03/14 05:47:02;;;;;;;2.50;0.70;;;;;;;10.14;81.23;98573.81;7398702;19;20017;-69
2023/03/14 05:49:31;;;;;;;1.60;0.90;;;;;;;10.15;81.96;98575.50;7405209;19;20021;-68
2023/03/14 05:52:02;;;;;;;1.92;0.80;;;;;;;10.16;82.96;98560.63;7399803;19;20036;-71
2023/03/14 05:54:30;;;;;;;1.67;0.60;;;;;;;10.16;82.84;98564.09;7402931;19;20035;-69
2023/03/14 05:56:59;;;;;;;1.05;0.60;;;;;;;10.15;83.20;98570.28;7402429;19;20086;-70
2023/03/14 05:59:27;;;;;;;1.58;0.90;;;;;;;10.15;82.71;98572.03;7402626;19;20077;-70
2023/03/14 06:01:56;;;;;;;2.35;0.70;;;;;;;10.13;82.67;98576.53;7397977;19;20393;-71
2023/03/14 06:04:24;;;;;;;1.80;0.50;;;;;;;10.11;82.40;98582.69;7396416;19;20022;-70
2023/03/14 06:06:53;;;;;;;1.10;0.63;;;;;;;10.09;82.99;98576.69;7399402;19;20082;-68
2023/03/14 06:09:24;;;;;;;3.33;1.02;;;;;;;10.13;82.64;98571.28;7397860;19;20014;-71
2023/03/14 06:11:53;;;;;;;1.92;1.25;;;;;;;10.11;82.74;98580.06;7400945;19;20038;-66
2023/03/14 06:14:21;;;;;;;3.35;1.60;;;;;;;10.10;80.57;98574.91;7395366;19;20021;-69
2023/03/14 06:16:50;;;;;;;3.80;1.20;;;;;;;10.10;83.17;98577.53;7398187;19;20074;-68
2023/03/14 06:19:19;;;;;;;1.63;0.90;;;;;;;10.13;82.96;98585.22;7396630;19;20011;-70
2023/03/14 06:21:47;;;;;;;2.28;0.95;;;;;;;10.14;81.88;98588.69;7396128;19;20015;-70
2023/03/14 06:24:15;;;;;;;1.27;0.57;;;;;;;10.15;81.73;98588.63;7396108;19;20015;-70
2023/03/14 06:26:46;;;;;;;1.65;0.88;;;;;;;10.15;81.11;98578.13;7396713;19;20010;-69
2023/03/14 06:29:17;;;;;;;4.57;1.38;;;;;;;10.17;81.47;98575.41;7397336;19;20086;-69
2023/03/14 06:32:08;;;;;;;2.90;0.68;;;;;;;10.19;81.34;98566.53;7398606;19;20019;-69
2023/03/14 06:37:48;;;;;;;2.00;1.15;;;;;;;10.23;81.80;98562.81;7399405;19;19989;-70
2023/03/14 06:40:17;;;;;;;1.90;0.88;;;;;;;10.25;81.86;98560.97;7396787;19;20018;-67
2023/03/14 06:42:48;;;;;;;3.92;1.70;;;;;;;10.26;81.46;98562.66;7396836;19;20018;-69
2023/03/14 06:45:17;;;;;;;3.67;1.02;;;;;;;10.28;80.10;98555.53;7399412;19;20018;-68
2023/03/14 06:47:46;;;;;;;5.38;1.50;;;;;;;10.30;81.12;98573.81;7396673;19;20023;-70
2023/03/14 06:50:14;;;;;;;1.42;1.10;;;;;;;10.32;81.61;98571.13;7396479;19;20021;-70
2023/03/14 06:52:47;;;;;;;3.40;0.95;;;;;;;10.35;80.69;98581.41;7396335;19;20086;-69
2023/03/14 06:55:16;;;;;;;5.35;1.20;;;;;;;10.37;80.79;98582.22;7395586;19;20362;-70
2023/03/14 06:57:45;;;;;;;3.33;1.17;;;;;;;10.41;79.98;98581.97;7395909;19;20095;-69
2023/03/14 07:00:17;;;;;;;4.82;1.35;;;;;;;10.42;79.15;98578.41;7397760;19;20015;-69
2023/03/14 07:02:45;;;;;;;5.70;1.30;;;;;;;10.48;79.96;98576.38;7395241;19;20018;-68
2023/03/14 07:05:14;;;;;;;3.83;0.98;;;;;;;10.51;79.47;98577.03;7395395;19;20023;-69
2023/03/14 07:07:42;;;;;;;3.45;1.00;;;;;;;10.53;80.64;98576.97;7395582;19;20038;-68
2023/03/14 07:10:12;;;;;;;3.58;0.95;;;;;;;10.51;79.81;98582.28;7394929;19;20429;-69
2023/03/14 07:12:41;;;;;;;3.65;0.90;;;;;;;10.54;80.94;98597.00;7395984;19;20038;-70
2023/03/14 07:15:10;;;;;;;3.45;1.10;;;;;;;10.50;81.31;98590.25;7395959;19;20474;-67
2023/03/14 07:17:41;;;;;;;3.58;1.70;;;;;;;10.48;78.72;98592.94;7396442;19;20018;-69
2023/03/14 07:20:12;;;;;;;9.95;5.88;;;;;;;10.45;81.23;98582.66;7396172;19;20054;-70
2023/03/14 07:22:40;;;;;;;5.80;2.80;;;;;;;10.46;81.84;98588.72;7397082;19;20162;-69
2023/03/14 07:25:22;;;;;;;6.43;2.25;;;;;;;10.44;80.38;98596.69;7392183;19;20019;-67
2023/03/14 07:27:50;;;;;;;2.78;1.38;;;;;;;10.40;81.58;98596.00;7397067;19;20147;-69
2023/03/14 07:30:19;;;;;;;3.28;1.60;;;;;;;10.41;81.29;98602.06;7394668;19;20074;-68
2023/03/14 07:32:50;;;;;;;4.85;1.00;;;;;;;10.39;81.62;98601.34;7395391;19;20074;-69
2023/03/14 07:35:19;;;;;;;5.55;1.10;;;;;;;10.37;80.52;98611.88;7394519;19;20024;-70
2023/03/14 07:37:48;;;;;;;5.47;1.23;;;;;;;10.36;81.64;98609.34;7394473;19;20051;-68
2023/03/14 07:40:16;;;;;;;2.63;1.17;;;;;;;10.37;82.10;98605.81;7396532;19;20040;-68
2023/03/14 07:42:46;;;;;;;3.72;0.98;;;;;;;10.37;82.39;98609.25;7401446;19;20017;-71
2023/03/14 07:45:14;;;;;;;1.75;1.00;;;;;;;10.35;81.72;98608.50;7395333;19;20021;-70
2023/03/14 07:47:43;;;;;;;2.92;1.00;;;;;;;10.37;81.15;98611.06;7393861;19;20078;-70
2023/03/14 07:50:15;;;;;;;4.32;1.10;;;;;;;10.31;82.32;98600.88;7394396;19;20010;-71
2023/03/14 07:52:43;;;;;;;3.58;0.95;;;;;;;10.40;82.35;98605.63;7395678;19;20020;-70
2023/03/14 07:55:13;;;;;;;2.85;0.95;;;;;;;10.42;83.12;98599.38;7394363;19;20021;-70
2023/03/14 07:57:41;;;;;;;3.28;1.20;;;;;;;10.44;82.91;98591.44;7395295;19;20482;-69
2023/03/14 08:00:13;;;;;;;2.08;1.15;;;;;;;10.46;82.72;98589.56;7394431;19;20438;-69
2023/03/14 08:02:42;;;;;;;5.00;1.25;;;;;;;10.49;82.46;98596.41;7396310;19;20038;-70
2023/03/14 08:05:14;;;;;;;3.15;1.88;;;;;;;10.52;82.71;98588.38;7394017;19;20031;-70
2023/03/14 08:07:42;;;;;;;3.00;1.25;;;;;;;10.55;82.47;98589.06;7394905;19;20022;-69
2023/03/14 08:10:15;;;;;;;2.92;1.40;;;;;;;10.59;82.78;98595.00;7394158;19;20014;-69
2023/03/14 08:12:44;;;;;;;3.05;1.75;;;;;;;10.65;82.21;98592.00;7393973;19;20018;-70
2023/03/14 08:15:13;;;;;;;4.75;1.20;;;;;;;10.69;81.63;98590.03;7393986;19;20022;-70
2023/03/14 08:17:41;;;;;;;3.13;1.00;;;;;;;10.77;81.14;98590.47;7394079;19;20019;-70
2023/03/14 08:20:14;;;;;;;4.63;1.10;;;;;;;10.83;81.16;98595.38;7394250;19;20054;-71
2023/03/14 08:22:42;;;;;;;4.35;1.10;;;;;;;10.90;80.58;98590.59;7393078;19;20010;-71
2023/03/14 08:25:11;;;;;;;3.40;0.90;;;;;;;10.94;80.33;98602.59;7393540;19;20010;-71
2023/03/14 08:27:40;;;;;;;3.95;1.05;;;;;;;10.95;76.88;98609.56;7393133;19;20426;-69
2023/03/14 08:30:12;;;;;;;4.05;1.05;;;;;;;10.97;76.53;98617.31;7393514;19;20018;-70
2023/03/14 08:32:41;;;;;;;3.60;1.02;;;;;;;11.01;78.56;98613.63;7393500;19;20074;-70
2023/03/14 08:35:13;;;;;;;2.50;1.25;;;;;;;11.01;78.34;98616.25;7392882;19;20482;-70
2023/03/14 08:37:42;;;;;;;4.03;1.33;;;;;;;11.02;78.30;98615.28;7396561;19;20010;-70
2023/03/14 08:40:12;;;;;;;8.13;1.00;;;;;;;11.03;75.45;98620.47;7400891;19;20015;-70
2023/03/14 08:42:41;;;;;;;3.38;1.00;;;;;;;11.02;75.82;98604.78;7404425;19;20014;-71
2023/03/14 08:45:13;;;;;;;2.92;1.13;;;;;;;11.05;76.39;98608.06;7406928;19;20441;-70
2023/03/14 08:47:42;;;;;;;7.57;1.30;;;;;;;11.08;76.63;98607.06;7403952;19;20562;-70
2023/03/14 08:50:14;;;;;;;5.10;1.00;;;;;;;11.09;76.16;98608.75;7399264;19;20091;-71
2023/03/14 08:52:43;;;;;;;6.78;1.83;;;;;;;11.16;77.12;98610.09;7399577;19;20033;-70
2023/03/14 08:55:12;;;;;;;4.45;1.45;;;;;;;11.17;76.76;98595.19;7400108;19;20094;-69
2023/03/14 08:57:40;;;;;;;5.25;1.90;;;;;;;11.25;77.12;98595.59;7399491;19;20018;-70
2023/03/14 09:00:12;;;;;;;5.43;1.10;;;;;;;11.30;76.32;98588.28;7399236;19;20077;-70
2023/03/14 09:02:40;;;;;;;4.07;1.60;;;;;;;11.38;76.07;98595.69;7400265;19;20011;-70
2023/03/14 09:05:10;;;;;;;3.70;0.93;;;;;;;11.45;74.72;98589.16;7400343;19;20083;-70
2023/03/14 09:07:42;;;;;;;3.55;1.00;;;;;;;11.52;74.49;98589.63;7401295;19;20019;-70
2023/03/14 09:10:12;;;;;;;3.47;0.90;;;;;;;11.58;73.03;98579.59;7398554;19;20015;-69
2023/03/14 09:12:41;;;;;;;2.97;1.33;;;;;;;11.65;74.97;98592.34;7398627;19;20035;-70
2023/03/14 09:15:11;;;;;;;5.97;1.10;;;;;;;11.69;73.46;98578.09;7398522;19;20525;-72
2023/03/14 09:17:39;;;;;;;2.92;0.77;;;;;;;11.73;73.43;98582.22;7402381;19;20021;-70
2023/03/14 09:20:09;;;;;;;2.03;1.05;;;;;;;11.79;73.33;98591.50;7399413;19;20023;-69
2023/03/14 09:22:38;;;;;;;5.20;0.80;;;;;;;11.83;72.45;98583.34;7398856;19;20007;-70
2023/03/14 09:25:10;;;;;;;6.75;1.70;;;;;;;11.98;70.27;98591.25;7396686;19;20358;-69
2023/03/14 09:27:39;;;;;;;4.20;1.05;;;;;;;12.10;72.60;98579.97;7397314;19;20493;-70
2023/03/14 09:30:08;;;;;;;1.67;0.70;;;;;;;12.21;70.88;98589.84;7397620;19;20027;-69
2023/03/14 09:32:37;;;;;;;2.45;0.63;;;;;;;12.32;70.13;98589.13;7397458;19;20423;-69
2023/03/14 09:35:06;;;;;;;3.00;1.17;;;;;;;12.37;69.41;98587.06;7398109;19;20506;-69
2023/03/14 09:37:34;;;;;;;5.38;1.27;;;;;;;12.40;69.75;98578.97;7398613;19;20091;-70
2023/03/14 09:40:07;;;;;;;2.22;0.77;;;;;;;12.49;69.21;98591.53;7400468;19;20085;-69
2023/03/14 09:42:41;;;;;;;3.08;0.73;;;;;;;12.51;69.68;98596.69;7400223;19;20496;-70
2023/03/14 09:45:15;;;;;;;2.10;0.77;;;;;;;12.51;67.66;98594.06;7397546;19;20362;-70
2023/03/14 09:47:44;;;;;;;;;;;;;;;12.49;64.48;98617.84;7399463;19;20083;-70
2023/03/14 09:50:15;;;;;;;1.95;0.60;;;;;;;12.50;68.39;98600.28;7398630;19;19919;-68
2023/03/14 09:52:48;;;;;;;3.47;0.50;;;;;;;12.49;68.71;98601.22;7401193;19;20091;-70
2023/03/14 09:55:19;;;;;;;3.17;0.73;;;;;;;12.52;69.29;98604.50;7399492;19;20393;-69
2023/03/14 09:57:52;;;;;;;5.13;1.38;;;;;;;12.58;67.79;98599.78;7403508;19;20029;-70
2023/03/14 10:00:23;;;;;;;2.83;0.82;;;;;;;12.60;66.99;98606.66;7400262;19;20493;-69
2023/03/14 10:02:56;;;;;;;2.53;0.65;;;;;;;12.65;68.12;98614.22;7403563;19;20490;-72
2023/03/14 10:05:27;;;;;;;3.00;0.70;;;;;;;12.67;68.16;98614.97;7399429;19;20011;-69
2023/03/14 10:07:56;;;;;;;5.47;1.05;;;;;;;12.69;68.28;98608.66;7399652;19;20500;-69
2023/03/14 10:10:27;;;;;;;3.90;0.63;;;;;;;12.73;67.79;98613.75;7402261;19;20019;-70
2023/03/14 10:13:01;;;;;;;3.17;0.88;;;;;;;12.76;68.22;98606.47;7399238;19;20070;-72
2023/03/14 10:15:33;;;;;;;;;;;;;;;12.82;67.74;98607.88;7401388;19;20010;-71
2023/03/14 10:18:03;;;;;;;2.53;1.00;;;;;;;12.81;67.13;98607.03;7401554;19;19923;-71
2023/03/14 10:20:35;;;;;;;2.38;0.82;;;;;;;12.80;69.26;98604.50;7398518;19;20014;-71
2023/03/14 10:23:06;;;;;;;3.63;1.20;;;;;;;12.78;69.38;98599.34;7399115;19;20045;-71
2023/03/14 10:25:37;;;;;;;2.63;0.70;;;;;;;12.74;70.57;98600.50;7398762;19;20010;-73
2023/03/14 10:28:25;;;;;;;2.80;0.88;;;;;;;12.70;67.11;98609.50;7398795;19;20503;-71
2023/03/14 10:30:54;;;;;;;2.75;0.70;;;;;;;12.66;69.86;98602.75;7401756;19;20086;-67
2023/03/14 10:33:25;;;;;;;4.78;1.00;;;;;;;12.64;70.12;98604.66;7401655;19;20015;-68
2023/03/14 10:35:58;;;;;;;2.63;0.93;;;;;;;12.59;69.05;98598.84;7399258;19;20478;-69
2023/03/14 10:38:29;;;;;;;2.92;1.02;;;;;;;12.58;70.01;98610.31;7399755;19;20026;-70
2023/03/14 10:40:59;;;;;;;4.82;1.02;;;;;;;12.55;69.25;98599.03;7398949;19;20506;-69
2023/03/14 10:43:35;;;;;;;6.03;0.98;;;;;;;12.54;67.97;98599.97;7396865;19;20082;-68
2023/03/14 10:46:11;;;;;;;6.65;1.30;;;;;;;12.55;67.29;98601.66;7400898;19;20031;-69
2023/03/14 10:48:45;;;;;;;2.42;0.80;;;;;;;12.57;68.77;98603.34;7398915;19;20484;-71
2023/03/14 10:51:22;;;;;;;2.13;0.60;;;;;;;12.57;66.92;98606.00;7398944;19;20014;-70
2023/03/14 10:53:52;;;;;;;1.05;0.50;;;;;;;12.56;68.80;98589.34;7398186;19;20042;-69
2023/03/14 10:56:23;;;;;;;3.65;1.05;;;;;;;12.56;68.80;98591.97;7400290;19;20035;-70
2023/03/14 10:58:58;;;;;;;2.28;0.90;;;;;;;12.55;67.84;98591.16;7400544;19;20037;-69
2023/03/14 11:01:39;;;;;;;2.30;1.20;;;;;;;12.57;67.80;98583.16;7398693;19;20022;-68
2023/03/14 11:04:18;;;;;;;4.53;0.80;;;;;;;12.57;66.12;98592.84;7397253;19;20497;-70
2023/03/14 11:06:54;;;;;;;2.17;0.50;;;;;;;12.55;66.19;98599.03;7400955;19;20041;-70
2023/03/14 11:09:32;;;;;;;3.03;0.73;;;;;;;12.54;67.39;98599.97;7397989;19;20561;-71
2023/03/14 11:12:13;;;;;;;3.47;0.88;;;;;;;12.54;67.80;98599.97;7396039;19;20375;-70
2023/03/14 11:14:52;;;;;;;2.10;0.57;;;;;;;12.56;67.46;98594.59;7395937;19;20019;-69
2023/03/14 11:17:28;;;;;;;1.83;0.50;;;;;;;12.58;66.53;98594.53;7398414;19;20094;-68
2023/03/14 11:20:08;;;;;;;3.40;0.60;;;;;;;12.61;66.86;98596.94;7396509;19;20473;-68
2023/03/14 11:22:44;;;;;;;2.28;0.70;;;;;;;12.61;66.57;98589.06;7397442;19;20038;-70
2023/03/14 11:25:35;;;;;;;2.53;0.80;;;;;;;12.65;65.24;98590.53;7396220;19;20010;-70
2023/03/14 11:28:12;;;;;;;5.80;0.80;;;;;;;12.71;67.94;98584.88;7398027;19;20038;-68
2023/03/14 11:30:52;;;;;;;1.65;0.40;;;;;;;12.78;66.48;98590.63;7400774;19;20086;-72
2023/03/14 11:33:27;;;;;;;0.77;0.50;;;;;;;12.84;66.01;98588.41;7399303;19;20038;-70
2023/03/14 11:36:02;;;;;;;2.33;0.70;;;;;;;12.90;64.72;98578.44;7394987;19;20018;-69
2023/03/14 11:38:35;;;;;;;1.33;0.60;;;;;;;12.97;64.59;98574.44;7394564;19;20090;-69
2023/03/14 11:41:04;;;;;;;1.38;0.65;;;;;;;13.03;66.83;98571.41;7395118;19;20098;-68
2023/03/14 11:43:37;;;;;;;1.67;0.52;;;;;;;13.03;65.25;98580.16;7393546;19;20014;-68
2023/03/14 11:46:16;;;;;;;3.50;0.80;;;;;;;12.99;64.18;98590.97;7396558;19;20104;-69
2023/03/14 11:48:54;;;;;;;1.40;0.40;;;;;;;12.88;64.96;98592.53;7394917;19;20082;-70
2023/03/14 11:51:27;;;;;;;2.10;0.50;;;;;;;12.83;66.79;98591.97;7395845;19;20488;-68
2023/03/14 11:54:10;;;;;;;2.78;0.63;;;;;;;12.74;67.72;98587.34;7395545;19;20018;-65